Strona główna
METAR-TAF:

METAR-TAF

Lotnisko :

Pipestone Municipal Airport

Pipestone, Minnesota, Stany Zjednoczone

Szerokość geograficzna: 43-59N, Długość geograficzna: 096-19W, wysokość: 529 m

Aktualna obserwacja pogody

Raport powstał 21 minut temu, godzina 16:16 UTC
Wiatr 4 kt od zachód
Temperatura -7°C
Wilgotność 93%
Ciśnienie 1028 hPa
Widzialność: 16.1 km
bezchmurnie

METAR: KPQN 061616Z AUTO 28004KT 10SM CLR M07/M08 A3037 RMK AO2

czas: 10:37 (16:37 UTC)


TAF: brakujący

Obserwacja i prognoza pogody dla ponad 4000 lotnisk (raport METAR i TAF).

Dostępne stacje oznaczono żółtymi i czerwonymi punktami na mapie.

Najedź kursorem aby zobaczyć nazwę stacji.

Kliknij aby zobaczyć obserwacje i prognozy pogody.

Aby zmienić mapę: kliknij na zielony przycisk z czarnym krzyżykiem, aby powiększyć; na zielony przycisk z myślnikiem, aby pomniejszyć; na zielone strzałki, aby przejść do map sąsiednich.


METAR-TAF: